createdAt,value
2017-06-13T00:00:02.575Z,77.90
2017-06-13T00:02:30.689Z,77.60
2017-06-13T00:04:58.811Z,77.80
2017-06-13T00:07:26.980Z,77.80
2017-06-13T00:09:55.134Z,77.70
2017-06-13T00:12:23.744Z,78.00
2017-06-13T00:14:51.891Z,78.30
2017-06-13T00:17:20.106Z,78.50
2017-06-13T00:19:49.165Z,78.60
2017-06-13T00:22:17.317Z,78.60
2017-06-13T00:24:45.495Z,78.70
2017-06-13T00:27:15.042Z,79.20
2017-06-13T00:29:43.226Z,79.10
2017-06-13T00:32:11.370Z,79.40
2017-06-13T00:34:39.542Z,79.80
2017-06-13T00:37:07.764Z,79.70
2017-06-13T00:39:36.083Z,80.00
2017-06-13T00:42:04.236Z,80.20
2017-06-13T00:44:32.919Z,80.20
2017-06-13T00:47:01.093Z,80.70
2017-06-13T00:49:30.012Z,81.10
2017-06-13T00:51:58.176Z,80.80
2017-06-13T00:54:26.332Z,81.10
2017-06-13T00:56:54.500Z,81.30
2017-06-13T00:59:22.696Z,81.60
2017-06-13T01:01:50.847Z,82.10
2017-06-13T01:04:19.014Z,82.40
2017-06-13T01:06:47.170Z,82.40
2017-06-13T01:09:15.342Z,82.30
2017-06-13T01:11:43.542Z,82.60
2017-06-13T01:14:11.784Z,82.60
2017-06-13T01:16:40.024Z,82.90
2017-06-13T01:19:08.186Z,82.90
2017-06-13T01:21:36.422Z,82.30
2017-06-13T01:24:04.564Z,82.40
2017-06-13T01:26:32.738Z,82.80
2017-06-13T01:29:01.619Z,82.60
2017-06-13T01:31:29.773Z,82.90
2017-06-13T01:33:57.980Z,83.30
2017-06-13T01:36:26.238Z,83.60
2017-06-13T01:38:54.414Z,83.40
2017-06-13T01:41:22.748Z,83.60
2017-06-13T01:43:50.967Z,83.70
2017-06-13T01:46:19.095Z,84.00
2017-06-13T01:48:47.220Z,83.70
2017-06-13T01:51:15.391Z,83.80
2017-06-13T01:53:43.652Z,83.70
2017-06-13T01:56:11.881Z,83.80
2017-06-13T01:58:40.104Z,84.30
2017-06-13T02:01:08.845Z,83.70
2017-06-13T02:03:37.759Z,83.70
2017-06-13T02:06:06.671Z,83.50
2017-06-13T02:08:34.837Z,83.50
2017-06-13T02:11:02.970Z,83.50
2017-06-13T02:13:31.101Z,83.10
2017-06-13T02:16:00.106Z,82.80
2017-06-13T02:18:28.280Z,82.80
2017-06-13T02:20:56.404Z,82.80
2017-06-13T02:23:24.548Z,82.90
2017-06-13T02:25:52.804Z,82.80
2017-06-13T02:28:21.707Z,82.80
2017-06-13T02:30:49.868Z,82.80
2017-06-13T02:33:18.016Z,82.40
2017-06-13T02:35:47.039Z,82.70
2017-06-13T02:38:15.160Z,82.60
2017-06-13T02:40:43.309Z,83.10
2017-06-13T02:43:12.193Z,83.50
2017-06-13T02:45:40.367Z,83.30
2017-06-13T02:48:08.551Z,83.50
2017-06-13T02:50:36.691Z,83.60
2017-06-13T02:53:04.973Z,83.60
2017-06-13T02:55:33.092Z,83.40
2017-06-13T02:58:01.529Z,83.30
2017-06-13T03:00:29.745Z,83.30
2017-06-13T03:02:57.873Z,83.50
2017-06-13T03:05:26.809Z,83.30
2017-06-13T03:07:57.827Z,83.20
2017-06-13T03:10:27.439Z,83.70
2017-06-13T03:12:56.159Z,83.50
2017-06-13T03:15:24.315Z,83.60
2017-06-13T03:17:53.280Z,83.50
2017-06-13T03:20:21.422Z,83.40
2017-06-13T03:22:50.131Z,83.40
2017-06-13T03:25:18.320Z,83.50
2017-06-13T03:27:46.561Z,82.70
2017-06-13T03:30:14.709Z,83.20
2017-06-13T03:32:42.853Z,83.80
2017-06-13T03:35:11.455Z,83.50
2017-06-13T03:37:39.602Z,84.10
2017-06-13T03:40:07.767Z,83.90
2017-06-13T03:42:36.691Z,84.10
2017-06-13T03:45:04.868Z,84.10
2017-06-13T03:47:33.004Z,84.30
2017-06-13T03:50:01.145Z,84.40
2017-06-13T03:52:30.171Z,84.90
2017-06-13T03:54:58.322Z,84.90
2017-06-13T03:57:26.566Z,84.30
2017-06-13T03:59:54.731Z,84.70
2017-06-13T04:02:22.933Z,85.00
2017-06-13T04:04:51.085Z,84.70
2017-06-13T04:07:19.255Z,85.00
2017-06-13T04:09:47.423Z,85.40
2017-06-13T04:12:15.588Z,85.20
2017-06-13T04:14:44.501Z,85.60
2017-06-13T04:17:12.666Z,85.50
2017-06-13T04:19:40.842Z,85.70
2017-06-13T04:22:09.039Z,86.20
2017-06-13T04:24:37.229Z,86.60
2017-06-13T04:27:05.367Z,86.40
2017-06-13T04:29:33.507Z,86.40
2017-06-13T04:32:01.681Z,86.50
2017-06-13T04:34:29.818Z,86.80
2017-06-13T04:36:58.019Z,87.10
2017-06-13T04:39:26.167Z,87.70
2017-06-13T04:41:55.068Z,88.30
2017-06-13T04:44:23.377Z,88.10
2017-06-13T04:46:52.433Z,88.40
2017-06-13T04:49:20.634Z,88.20
2017-06-13T04:51:49.519Z,88.10
2017-06-13T04:54:17.683Z,88.50
2017-06-13T04:56:45.822Z,88.30
2017-06-13T04:59:14.045Z,88.20
2017-06-13T05:01:42.289Z,87.80
2017-06-13T05:04:10.467Z,88.20
2017-06-13T05:06:39.392Z,88.10
2017-06-13T05:09:07.663Z,88.00
2017-06-13T05:11:35.857Z,88.00
2017-06-13T05:14:04.020Z,87.90
2017-06-13T05:16:32.215Z,87.70
2017-06-13T05:19:00.638Z,87.60
2017-06-13T05:21:28.818Z,87.90
2017-06-13T05:23:57.034Z,87.70
2017-06-13T05:26:25.181Z,87.30
2017-06-13T05:28:53.401Z,87.30
2017-06-13T05:31:22.180Z,87.10
2017-06-13T05:33:50.484Z,86.60
2017-06-13T05:36:18.638Z,86.10
2017-06-13T05:38:46.763Z,85.60
2017-06-13T05:41:15.046Z,85.70
2017-06-13T05:43:43.190Z,84.90
2017-06-13T05:46:12.240Z,84.50
2017-06-13T05:48:40.395Z,84.30
2017-06-13T05:51:08.575Z,83.70
2017-06-13T05:53:36.744Z,83.60
2017-06-13T05:56:04.873Z,83.40
2017-06-13T05:58:32.997Z,84.20
2017-06-13T06:01:01.162Z,84.80
2017-06-13T06:03:29.403Z,84.70
2017-06-13T06:05:57.574Z,85.00
2017-06-13T06:08:26.233Z,83.60
2017-06-13T06:10:55.087Z,83.50
2017-06-13T06:13:23.387Z,82.60
2017-06-13T06:15:51.512Z,82.50
2017-06-13T06:18:19.706Z,82.90
2017-06-13T06:20:47.994Z,82.20
2017-06-13T06:23:16.122Z,82.10
2017-06-13T06:25:44.276Z,80.70
2017-06-13T06:28:12.411Z,80.40
2017-06-13T06:30:40.573Z,80.30
2017-06-13T06:33:08.721Z,80.70
2017-06-13T06:35:36.851Z,80.60
2017-06-13T06:38:05.064Z,81.10
2017-06-13T06:40:33.207Z,81.00
2017-06-13T06:43:01.382Z,81.40
2017-06-13T06:45:29.533Z,81.40
2017-06-13T06:47:57.668Z,81.30
2017-06-13T06:50:25.837Z,81.10
2017-06-13T06:52:53.987Z,81.30
2017-06-13T06:55:22.310Z,80.90
2017-06-13T06:57:50.540Z,81.00
2017-06-13T07:00:18.680Z,80.70
2017-06-13T07:02:46.961Z,80.70
2017-06-13T07:05:15.084Z,80.20
2017-06-13T07:07:43.462Z,80.20
2017-06-13T07:10:12.407Z,80.30
2017-06-13T07:12:40.541Z,79.20
2017-06-13T07:15:09.033Z,79.50
2017-06-13T07:17:38.066Z,79.80
2017-06-13T07:20:06.977Z,80.20
2017-06-13T07:22:35.106Z,80.60
2017-06-13T07:25:03.868Z,80.90
2017-06-13T07:27:32.184Z,80.30
2017-06-13T07:30:00.307Z,80.40
2017-06-13T07:32:28.512Z,80.20
2017-06-13T07:34:56.662Z,80.10
2017-06-13T07:37:24.811Z,80.30
2017-06-13T07:39:53.007Z,79.60
2017-06-13T07:42:21.149Z,79.60
2017-06-13T07:44:49.339Z,79.10
2017-06-13T07:47:18.088Z,79.40
2017-06-13T07:49:46.220Z,79.30
2017-06-13T07:52:14.366Z,79.30
2017-06-13T07:54:42.495Z,78.90
2017-06-13T07:57:10.736Z,78.60
2017-06-13T07:59:39.275Z,79.00
2017-06-13T08:02:08.188Z,78.60
2017-06-13T08:04:36.328Z,78.60
2017-06-13T08:07:04.532Z,79.00
2017-06-13T08:09:32.789Z,78.50
2017-06-13T08:12:00.919Z,78.40
2017-06-13T08:14:29.083Z,77.70
2017-06-13T08:16:58.186Z,77.10
2017-06-13T08:19:27.104Z,78.50
2017-06-13T08:21:55.261Z,78.40
2017-06-13T08:24:23.400Z,75.90
2017-06-13T08:26:52.294Z,75.40
2017-06-13T08:29:20.412Z,75.70
2017-06-13T08:31:48.563Z,76.40
2017-06-13T08:34:16.817Z,77.20
2017-06-13T08:36:44.957Z,77.50
2017-06-13T08:39:13.307Z,74.60
2017-06-13T08:41:41.439Z,73.30
2017-06-13T08:44:09.609Z,72.80
2017-06-13T08:46:37.817Z,71.60
2017-06-13T08:49:05.947Z,68.90
2017-06-13T08:51:34.736Z,68.20
2017-06-13T08:54:02.863Z,67.70
2017-06-13T08:56:31.087Z,67.20
2017-06-13T08:58:59.235Z,68.80
2017-06-13T09:01:27.369Z,70.50
2017-06-13T09:03:55.657Z,70.50
2017-06-13T09:06:23.858Z,70.10
2017-06-13T09:08:53.244Z,69.10
2017-06-13T09:11:21.487Z,68.30
2017-06-13T09:13:49.638Z,68.20
2017-06-13T09:16:17.834Z,70.40
2017-06-13T09:18:45.973Z,72.00
2017-06-13T09:21:14.915Z,70.20
2017-06-13T09:23:43.262Z,70.10
2017-06-13T09:26:12.482Z,69.70
2017-06-13T09:28:40.669Z,69.50
2017-06-13T09:31:09.449Z,70.60
2017-06-13T09:33:39.067Z,73.40
2017-06-13T09:36:07.240Z,73.30
2017-06-13T09:38:36.218Z,73.60
2017-06-13T09:41:04.387Z,73.60
2017-06-13T09:43:32.569Z,71.20
2017-06-13T09:46:00.696Z,69.10
2017-06-13T09:48:28.886Z,68.80
2017-06-13T09:50:57.003Z,69.50
2017-06-13T09:53:25.218Z,70.60
2017-06-13T09:55:54.170Z,69.60
2017-06-13T09:58:22.325Z,70.60
2017-06-13T10:00:50.481Z,69.00
2017-06-13T10:03:20.198Z,65.40
2017-06-13T10:05:48.470Z,65.40
2017-06-13T10:08:16.675Z,65.10
2017-06-13T10:10:44.795Z,63.70
2017-06-13T10:13:13.013Z,61.30
2017-06-13T10:15:42.042Z,62.00
2017-06-13T10:18:10.384Z,62.60
2017-06-13T10:20:38.549Z,61.50
2017-06-13T10:23:06.694Z,61.80
2017-06-13T10:25:34.969Z,62.80
2017-06-13T10:28:03.285Z,63.40
2017-06-13T10:30:31.458Z,62.60
2017-06-13T10:32:59.634Z,60.20
2017-06-13T10:35:27.870Z,59.90
2017-06-13T10:37:56.111Z,60.90
2017-06-13T10:40:24.901Z,62.30
2017-06-13T10:42:53.153Z,63.00
2017-06-13T10:45:21.279Z,64.40
2017-06-13T10:47:49.410Z,61.90
2017-06-13T10:50:17.594Z,64.10
2017-06-13T10:52:45.811Z,63.00
2017-06-13T10:55:13.979Z,63.00
2017-06-13T10:57:42.130Z,63.70
2017-06-13T11:00:11.023Z,64.10
2017-06-13T11:02:39.398Z,64.10
2017-06-13T11:05:07.581Z,64.00
2017-06-13T11:07:36.507Z,64.10
2017-06-13T11:10:04.704Z,64.00
2017-06-13T11:12:33.739Z,64.90
2017-06-13T11:15:01.920Z,65.70
2017-06-13T11:17:30.167Z,65.80
2017-06-13T11:19:58.364Z,67.00
2017-06-13T11:22:27.273Z,67.80
2017-06-13T11:24:55.418Z,67.60
2017-06-13T11:27:23.578Z,68.50
2017-06-13T11:29:52.478Z,69.00
2017-06-13T11:32:20.775Z,68.90
2017-06-13T11:34:49.029Z,69.80
2017-06-13T11:37:17.203Z,70.50
2017-06-13T11:39:45.355Z,71.40
2017-06-13T11:42:13.556Z,71.60
2017-06-13T11:44:41.850Z,72.00
2017-06-13T11:47:10.061Z,70.70
2017-06-13T11:49:39.019Z,68.10
2017-06-13T11:52:07.826Z,68.10
2017-06-13T11:54:35.963Z,67.30
2017-06-13T11:57:04.187Z,65.20
2017-06-13T11:59:33.151Z,61.60
2017-06-13T12:02:01.366Z,62.10
2017-06-13T12:04:29.606Z,61.90
2017-06-13T12:06:57.757Z,60.80
2017-06-13T12:09:25.934Z,60.70
2017-06-13T12:11:54.850Z,59.30
2017-06-13T12:14:23.507Z,59.30
2017-06-13T12:16:51.683Z,60.30
2017-06-13T12:19:19.817Z,60.40
2017-06-13T12:21:48.015Z,58.90
2017-06-13T12:24:16.177Z,58.10
2017-06-13T12:26:45.105Z,59.80
2017-06-13T12:29:14.067Z,59.70
2017-06-13T12:31:42.269Z,59.30
2017-06-13T12:34:10.721Z,59.30
2017-06-13T12:36:38.909Z,59.90
2017-06-13T12:39:07.097Z,59.90
2017-06-13T12:41:35.370Z,60.50
2017-06-13T12:44:03.572Z,60.10
2017-06-13T12:46:31.806Z,62.20
2017-06-13T12:48:59.986Z,64.00
2017-06-13T12:51:28.205Z,63.10
2017-06-13T12:53:56.422Z,62.20
2017-06-13T12:56:24.576Z,61.90
2017-06-13T12:58:52.768Z,64.20
2017-06-13T13:01:20.924Z,65.50
2017-06-13T13:03:49.429Z,63.90
2017-06-13T13:06:17.816Z,62.40
2017-06-13T13:08:46.176Z,60.40
2017-06-13T13:11:14.793Z,60.10
2017-06-13T13:13:42.934Z,61.40
2017-06-13T13:16:11.200Z,61.30
2017-06-13T13:18:40.482Z,61.60
2017-06-13T13:21:08.861Z,62.30
2017-06-13T13:23:37.764Z,62.90
2017-06-13T13:26:06.019Z,63.10
2017-06-13T13:28:36.682Z,62.30
2017-06-13T13:31:04.896Z,62.10
2017-06-13T13:33:33.034Z,61.90
2017-06-13T13:36:01.725Z,61.60
2017-06-13T13:38:29.878Z,59.60
2017-06-13T13:40:58.398Z,60.00
2017-06-13T13:43:26.573Z,59.70
2017-06-13T13:45:54.842Z,60.40
2017-06-13T13:48:23.071Z,61.60
2017-06-13T13:50:51.234Z,61.60
2017-06-13T13:53:19.377Z,61.20
2017-06-13T13:55:47.838Z,61.40
2017-06-13T13:58:15.987Z,62.70
2017-06-13T14:00:44.154Z,62.20
2017-06-13T14:03:13.076Z,62.60
2017-06-13T14:05:41.264Z,62.10
2017-06-13T14:08:09.505Z,62.00
2017-06-13T14:10:38.279Z,61.60
2017-06-13T14:13:07.291Z,62.20
2017-06-13T14:15:35.582Z,62.10
2017-06-13T14:18:04.991Z,63.00
2017-06-13T14:20:33.185Z,63.00
2017-06-13T14:23:01.473Z,62.10
2017-06-13T14:25:30.505Z,61.90
2017-06-13T14:27:58.829Z,62.40
2017-06-13T14:30:27.605Z,63.00
2017-06-13T14:32:56.407Z,63.50
2017-06-13T14:35:25.349Z,62.20
2017-06-13T14:37:54.395Z,62.10
2017-06-13T14:40:23.900Z,64.20
2017-06-13T14:42:52.795Z,64.40
2017-06-13T14:45:20.965Z,64.20
2017-06-13T14:47:49.144Z,64.00
2017-06-13T14:50:17.334Z,64.60
2017-06-13T14:52:45.509Z,64.10
2017-06-13T14:55:13.686Z,64.20
2017-06-13T14:57:41.946Z,65.20
2017-06-13T15:00:11.604Z,65.00
2017-06-13T15:02:39.738Z,65.40
2017-06-13T15:05:09.277Z,65.90
2017-06-13T15:07:37.533Z,66.70
2017-06-13T15:10:05.712Z,66.10
2017-06-13T15:12:34.499Z,65.80
2017-06-13T15:15:02.656Z,65.40
2017-06-13T15:17:30.897Z,65.30
2017-06-13T15:19:59.045Z,64.50
2017-06-13T15:22:27.220Z,65.30
2017-06-13T15:24:55.379Z,65.50
2017-06-13T15:27:23.546Z,66.20
2017-06-13T15:29:51.705Z,66.70
2017-06-13T15:32:19.858Z,66.90
2017-06-13T15:34:48.417Z,67.50
2017-06-13T15:37:17.396Z,67.70
2017-06-13T15:39:46.037Z,65.50
2017-06-13T15:42:14.260Z,64.60
2017-06-13T15:44:43.161Z,64.70
2017-06-13T15:47:11.344Z,63.70
2017-06-13T15:49:39.722Z,64.40
2017-06-13T15:52:07.961Z,64.70
2017-06-13T15:54:36.133Z,65.20
2017-06-13T15:57:04.281Z,65.90
2017-06-13T15:59:32.489Z,64.50
2017-06-13T16:02:00.630Z,64.20
2017-06-13T16:04:28.852Z,65.00
2017-06-13T16:06:57.064Z,65.00
2017-06-13T16:09:25.192Z,66.30
2017-06-13T16:11:54.170Z,66.80
2017-06-13T16:14:22.388Z,66.80
2017-06-13T16:16:50.518Z,65.70
2017-06-13T16:19:18.683Z,65.20
2017-06-13T16:21:47.419Z,64.60
2017-06-13T16:24:16.408Z,64.00
2017-06-13T16:26:44.593Z,63.80
2017-06-13T16:29:12.788Z,64.00
2017-06-13T16:31:40.957Z,62.70
2017-06-13T16:34:12.370Z,62.80
2017-06-13T16:36:40.690Z,63.50
2017-06-13T16:39:09.621Z,64.20
2017-06-13T16:41:38.630Z,63.30
2017-06-13T16:44:06.791Z,64.20
2017-06-13T16:46:34.972Z,64.20
2017-06-13T16:49:03.168Z,65.20
2017-06-13T16:51:31.323Z,65.50
2017-06-13T16:53:59.502Z,66.10
2017-06-13T16:56:27.792Z,66.50
2017-06-13T16:58:57.213Z,67.10
2017-06-13T17:01:26.070Z,66.90
2017-06-13T17:03:54.210Z,68.00
2017-06-13T17:06:22.365Z,67.50
2017-06-13T17:08:50.636Z,67.00
2017-06-13T17:11:19.030Z,67.80
2017-06-13T17:13:47.322Z,68.00
2017-06-13T17:16:15.500Z,67.30
2017-06-13T17:18:43.693Z,67.70
2017-06-13T17:21:12.678Z,67.50
2017-06-13T17:23:41.401Z,67.90
2017-06-13T17:26:09.658Z,68.60
2017-06-13T17:28:38.369Z,68.50
2017-06-13T17:31:06.570Z,68.50
2017-06-13T17:33:34.838Z,69.20
2017-06-13T17:36:03.133Z,68.50
2017-06-13T17:38:31.316Z,67.80
2017-06-13T17:40:59.458Z,68.10
2017-06-13T17:43:27.604Z,69.70
2017-06-13T17:45:56.585Z,67.60
2017-06-13T17:48:24.738Z,68.50
2017-06-13T17:50:52.920Z,69.10
2017-06-13T17:53:21.071Z,69.60
2017-06-13T17:55:49.227Z,69.50
2017-06-13T17:58:17.401Z,69.90
2017-06-13T18:00:45.544Z,70.10
2017-06-13T18:03:13.778Z,70.00
2017-06-13T18:05:42.770Z,71.50
2017-06-13T18:08:10.885Z,70.50
2017-06-13T18:10:40.671Z,71.00
2017-06-13T18:13:08.823Z,73.80
2017-06-13T18:15:37.090Z,70.90
2017-06-13T18:18:05.662Z,70.30
2017-06-13T18:20:33.885Z,71.90
2017-06-13T18:23:02.075Z,72.80
2017-06-13T18:25:30.233Z,73.50
2017-06-13T18:27:58.407Z,74.90
2017-06-13T18:30:27.286Z,74.50
2017-06-13T18:32:55.410Z,74.50
2017-06-13T18:35:24.570Z,74.50
2017-06-13T18:37:53.291Z,74.60
2017-06-13T18:40:22.776Z,74.20
2017-06-13T18:42:50.950Z,75.20
2017-06-13T18:45:19.145Z,74.50
2017-06-13T18:47:49.119Z,74.10
2017-06-13T18:50:17.363Z,73.20
2017-06-13T18:52:45.550Z,73.70
2017-06-13T18:55:14.144Z,73.10
2017-06-13T18:57:42.296Z,72.00
2017-06-13T19:00:10.608Z,72.10
2017-06-13T19:02:39.599Z,72.60
2017-06-13T19:05:07.789Z,72.00
2017-06-13T19:07:37.282Z,71.80
2017-06-13T19:10:05.400Z,70.90
2017-06-13T19:12:33.646Z,71.40
2017-06-13T19:15:02.420Z,71.10
2017-06-13T19:17:30.623Z,70.90
2017-06-13T19:19:58.786Z,71.30
2017-06-13T19:22:27.700Z,71.40
2017-06-13T19:24:55.852Z,71.00
2017-06-13T19:27:24.773Z,70.90
2017-06-13T19:29:54.124Z,70.90
2017-06-13T19:32:22.277Z,71.30
2017-06-13T19:34:50.463Z,71.00
2017-06-13T19:37:19.376Z,72.00
2017-06-13T19:39:47.557Z,72.00
2017-06-13T19:42:15.711Z,72.20
2017-06-13T19:44:44.239Z,73.80
2017-06-13T19:47:12.530Z,73.10
2017-06-13T19:49:41.171Z,73.50
2017-06-13T19:52:09.327Z,73.40
2017-06-13T19:54:38.433Z,73.80
2017-06-13T19:57:06.948Z,74.10
2017-06-13T19:59:35.631Z,74.20
2017-06-13T20:02:04.463Z,74.50
2017-06-13T20:04:32.611Z,74.30
2017-06-13T20:07:00.841Z,74.50
2017-06-13T20:09:29.353Z,74.90
2017-06-13T20:11:57.544Z,74.80
2017-06-13T20:14:25.694Z,75.20
2017-06-13T20:16:54.064Z,75.30
2017-06-13T20:19:22.230Z,75.90
2017-06-13T20:21:50.379Z,76.40
2017-06-13T20:24:19.436Z,76.90
2017-06-13T20:26:47.607Z,77.40
2017-06-13T20:29:16.290Z,77.80
2017-06-13T20:31:44.462Z,77.80
2017-06-13T20:34:13.356Z,78.70
2017-06-13T20:36:41.583Z,78.60
2017-06-13T20:39:10.420Z,79.00
2017-06-13T20:41:38.639Z,79.20
2017-06-13T20:44:06.889Z,79.30
2017-06-13T20:46:35.024Z,79.50
2017-06-13T20:49:03.234Z,79.70
2017-06-13T20:51:31.395Z,80.10
2017-06-13T20:54:00.025Z,80.30
2017-06-13T20:56:28.236Z,80.20
2017-06-13T20:58:56.457Z,80.20
2017-06-13T21:01:24.937Z,80.20
2017-06-13T21:03:54.535Z,80.20
2017-06-13T21:06:22.731Z,80.10
2017-06-13T21:08:50.889Z,79.80
2017-06-13T21:11:19.027Z,78.70
2017-06-13T21:13:47.281Z,78.40
2017-06-13T21:16:15.429Z,78.50
2017-06-13T21:18:43.695Z,79.00
2017-06-13T21:21:11.856Z,79.00
2017-06-13T21:23:40.010Z,79.70
2017-06-13T21:26:08.189Z,80.70
2017-06-13T21:28:37.116Z,81.70
2017-06-13T21:31:06.027Z,81.90
2017-06-13T21:33:34.224Z,81.90
2017-06-13T21:36:03.134Z,82.80
2017-06-13T21:38:31.352Z,82.80
2017-06-13T21:40:59.506Z,82.70
2017-06-13T21:43:27.644Z,82.80
2017-06-13T21:45:57.134Z,83.10
2017-06-13T21:48:25.279Z,83.30
2017-06-13T21:50:53.511Z,83.30
2017-06-13T21:53:21.659Z,83.30
2017-06-13T21:55:49.787Z,83.40
2017-06-13T21:58:18.751Z,83.10
2017-06-13T22:00:47.017Z,83.00
2017-06-13T22:03:15.213Z,83.30
2017-06-13T22:05:44.133Z,84.00
2017-06-13T22:08:12.403Z,84.00
2017-06-13T22:10:40.566Z,84.00
2017-06-13T22:13:09.876Z,84.10
2017-06-13T22:15:38.069Z,84.20
2017-06-13T22:18:06.262Z,84.20
2017-06-13T22:20:35.166Z,83.90
2017-06-13T22:23:03.338Z,83.80
2017-06-13T22:25:31.505Z,83.80
2017-06-13T22:27:59.666Z,84.20
2017-06-13T22:30:28.567Z,84.20
2017-06-13T22:32:56.687Z,84.00
2017-06-13T22:35:25.706Z,84.20
2017-06-13T22:37:53.843Z,84.30
2017-06-13T22:40:22.843Z,84.50
2017-06-13T22:42:51.728Z,84.20
2017-06-13T22:45:20.320Z,84.20
2017-06-13T22:47:48.480Z,84.30
2017-06-13T22:50:16.636Z,85.30
2017-06-13T22:52:44.939Z,84.30
2017-06-13T22:55:13.085Z,84.20
2017-06-13T22:57:42.187Z,84.40
2017-06-13T23:00:10.355Z,84.50
2017-06-13T23:02:39.623Z,85.70
2017-06-13T23:05:07.816Z,84.90
2017-06-13T23:07:35.969Z,85.20
2017-06-13T23:10:04.096Z,85.30
2017-06-13T23:12:32.262Z,85.70
2017-06-13T23:15:01.200Z,86.40
2017-06-13T23:17:29.380Z,86.40
2017-06-13T23:19:57.514Z,86.70
2017-06-13T23:22:25.664Z,87.00
2017-06-13T23:24:53.810Z,87.10
2017-06-13T23:27:21.992Z,87.10
2017-06-13T23:29:50.198Z,87.30
2017-06-13T23:32:18.559Z,87.50
2017-06-13T23:34:47.482Z,87.80
2017-06-13T23:37:15.677Z,88.10
2017-06-13T23:39:43.873Z,88.20
2017-06-13T23:42:12.046Z,88.30
2017-06-13T23:44:40.710Z,88.50
2017-06-13T23:47:08.852Z,88.70
2017-06-13T23:49:37.027Z,88.80
2017-06-13T23:52:06.005Z,89.40
2017-06-13T23:54:34.181Z,89.30
2017-06-13T23:57:02.361Z,89.50
2017-06-13T23:59:30.517Z,89.80
